sensor_id;sensor_type;location;lat;lon;timestamp;P1;durP1;ratioP1;P2;durP2;ratioP2
76550;SDS011;68768;53.156;18.164;2023-11-21T00:01:58;16.20;;;8.50;;
76550;SDS011;68768;53.156;18.164;2023-11-21T00:04:25;15.60;;;8.60;;
76550;SDS011;68768;53.156;18.164;2023-11-21T00:06:55;16.80;;;8.30;;
76550;SDS011;68768;53.156;18.164;2023-11-21T00:09:21;15.30;;;6.70;;
76550;SDS011;68768;53.156;18.164;2023-11-21T00:11:49;15.60;;;8.50;;
76550;SDS011;68768;53.156;18.164;2023-11-21T00:14:16;15.40;;;8.60;;
76550;SDS011;68768;53.156;18.164;2023-11-21T00:16:43;14.10;;;8.00;;
76550;SDS011;68768;53.156;18.164;2023-11-21T00:19:11;15.10;;;8.40;;
76550;SDS011;68768;53.156;18.164;2023-11-21T00:21:39;17.30;;;7.60;;
76550;SDS011;68768;53.156;18.164;2023-11-21T00:24:06;14.80;;;7.30;;
76550;SDS011;68768;53.156;18.164;2023-11-21T00:26:34;17.70;;;8.90;;
76550;SDS011;68768;53.156;18.164;2023-11-21T00:29:04;16.90;;;8.90;;
76550;SDS011;68768;53.156;18.164;2023-11-21T00:31:34;13.10;;;7.90;;
76550;SDS011;68768;53.156;18.164;2023-11-21T00:34:06;12.20;;;6.80;;
76550;SDS011;68768;53.156;18.164;2023-11-21T00:36:34;13.70;;;7.10;;
76550;SDS011;68768;53.156;18.164;2023-11-21T00:39:01;12.70;;;6.50;;
76550;SDS011;68768;53.156;18.164;2023-11-21T00:41:29;12.30;;;6.80;;
76550;SDS011;68768;53.156;18.164;2023-11-21T00:43:57;11.10;;;6.70;;
76550;SDS011;68768;53.156;18.164;2023-11-21T00:46:25;11.50;;;6.50;;
76550;SDS011;68768;53.156;18.164;2023-11-21T00:48:55;18.20;;;8.70;;
76550;SDS011;68768;53.156;18.164;2023-11-21T00:51:23;18.40;;;8.90;;
76550;SDS011;68768;53.156;18.164;2023-11-21T00:53:51;12.30;;;6.10;;
76550;SDS011;68768;53.156;18.164;2023-11-21T00:56:18;17.00;;;7.90;;
76550;SDS011;68768;53.156;18.164;2023-11-21T00:58:45;10.50;;;6.30;;
76550;SDS011;68768;53.156;18.164;2023-11-21T01:01:13;9.90;;;5.80;;
76550;SDS011;68768;53.156;18.164;2023-11-21T01:03:40;13.00;;;6.40;;
76550;SDS011;68768;53.156;18.164;2023-11-21T01:06:08;13.00;;;6.60;;
76550;SDS011;68768;53.156;18.164;2023-11-21T01:08:35;13.00;;;5.90;;
76550;SDS011;68768;53.156;18.164;2023-11-21T01:11:02;11.00;;;6.20;;
76550;SDS011;68768;53.156;18.164;2023-11-21T01:13:31;15.00;;;7.60;;
76550;SDS011;68768;53.156;18.164;2023-11-21T01:15:59;13.30;;;6.60;;
76550;SDS011;68768;53.156;18.164;2023-11-21T01:18:25;10.60;;;5.60;;
76550;SDS011;68768;53.156;18.164;2023-11-21T01:20:52;13.70;;;7.60;;
76550;SDS011;68768;53.156;18.164;2023-11-21T01:23:20;13.00;;;7.10;;
76550;SDS011;68768;53.156;18.164;2023-11-21T01:25:47;12.40;;;7.30;;
76550;SDS011;68768;53.156;18.164;2023-11-21T01:28:14;14.00;;;7.20;;
76550;SDS011;68768;53.156;18.164;2023-11-21T01:30:41;10.80;;;5.70;;
76550;SDS011;68768;53.156;18.164;2023-11-21T01:33:08;13.90;;;7.30;;
76550;SDS011;68768;53.156;18.164;2023-11-21T01:35:35;14.10;;;7.20;;
76550;SDS011;68768;53.156;18.164;2023-11-21T01:38:02;16.10;;;8.70;;
76550;SDS011;68768;53.156;18.164;2023-11-21T01:40:30;12.70;;;6.80;;
76550;SDS011;68768;53.156;18.164;2023-11-21T01:42:57;12.00;;;6.60;;
76550;SDS011;68768;53.156;18.164;2023-11-21T01:45:24;12.30;;;6.90;;
76550;SDS011;68768;53.156;18.164;2023-11-21T01:47:51;14.20;;;7.60;;
76550;SDS011;68768;53.156;18.164;2023-11-21T01:50:19;13.60;;;7.00;;
76550;SDS011;68768;53.156;18.164;2023-11-21T01:52:46;14.80;;;7.80;;
76550;SDS011;68768;53.156;18.164;2023-11-21T01:55:15;20.10;;;8.90;;
76550;SDS011;68768;53.156;18.164;2023-11-21T01:57:47;13.30;;;7.90;;
76550;SDS011;68768;53.156;18.164;2023-11-21T02:00:14;15.10;;;8.50;;
76550;SDS011;68768;53.156;18.164;2023-11-21T02:02:45;15.90;;;8.60;;
76550;SDS011;68768;53.156;18.164;2023-11-21T02:05:16;16.50;;;8.90;;
76550;SDS011;68768;53.156;18.164;2023-11-21T02:07:45;16.00;;;7.60;;
76550;SDS011;68768;53.156;18.164;2023-11-21T02:10:17;15.10;;;8.20;;
76550;SDS011;68768;53.156;18.164;2023-11-21T02:12:46;15.10;;;8.20;;
76550;SDS011;68768;53.156;18.164;2023-11-21T02:15:13;14.80;;;7.10;;
76550;SDS011;68768;53.156;18.164;2023-11-21T02:17:47;16.50;;;8.40;;
76550;SDS011;68768;53.156;18.164;2023-11-21T02:20:17;13.30;;;7.10;;
76550;SDS011;68768;53.156;18.164;2023-11-21T02:25:25;15.10;;;8.20;;
76550;SDS011;68768;53.156;18.164;2023-11-21T02:27:54;16.20;;;8.50;;
76550;SDS011;68768;53.156;18.164;2023-11-21T02:30:22;14.80;;;8.00;;
76550;SDS011;68768;53.156;18.164;2023-11-21T02:32:52;16.20;;;8.20;;
76550;SDS011;68768;53.156;18.164;2023-11-21T02:35:23;15.00;;;7.80;;
76550;SDS011;68768;53.156;18.164;2023-11-21T02:37:52;14.50;;;7.70;;
76550;SDS011;68768;53.156;18.164;2023-11-21T02:40:20;13.60;;;7.00;;
76550;SDS011;68768;53.156;18.164;2023-11-21T02:42:47;16.20;;;7.70;;
76550;SDS011;68768;53.156;18.164;2023-11-21T02:45:15;14.90;;;7.90;;
76550;SDS011;68768;53.156;18.164;2023-11-21T02:47:45;14.50;;;7.20;;
76550;SDS011;68768;53.156;18.164;2023-11-21T02:50:12;18.20;;;9.50;;
76550;SDS011;68768;53.156;18.164;2023-11-21T02:52:39;16.60;;;8.10;;
76550;SDS011;68768;53.156;18.164;2023-11-21T02:55:06;13.10;;;6.40;;
76550;SDS011;68768;53.156;18.164;2023-11-21T02:57:34;13.80;;;7.20;;
76550;SDS011;68768;53.156;18.164;2023-11-21T03:00:01;16.30;;;7.30;;
76550;SDS011;68768;53.156;18.164;2023-11-21T03:02:29;13.80;;;7.70;;
76550;SDS011;68768;53.156;18.164;2023-11-21T03:04:56;16.40;;;8.60;;
76550;SDS011;68768;53.156;18.164;2023-11-21T03:07:22;15.00;;;7.50;;
76550;SDS011;68768;53.156;18.164;2023-11-21T03:09:49;17.60;;;9.20;;
76550;SDS011;68768;53.156;18.164;2023-11-21T03:12:17;19.00;;;8.40;;
76550;SDS011;68768;53.156;18.164;2023-11-21T03:14:43;18.90;;;9.10;;
76550;SDS011;68768;53.156;18.164;2023-11-21T03:17:10;18.40;;;8.90;;
76550;SDS011;68768;53.156;18.164;2023-11-21T03:19:38;17.70;;;9.50;;
76550;SDS011;68768;53.156;18.164;2023-11-21T03:22:05;15.80;;;9.50;;
76550;SDS011;68768;53.156;18.164;2023-11-21T03:24:32;17.50;;;8.90;;
76550;SDS011;68768;53.156;18.164;2023-11-21T03:27:00;18.80;;;8.70;;
76550;SDS011;68768;53.156;18.164;2023-11-21T03:29:26;18.30;;;8.90;;
76550;SDS011;68768;53.156;18.164;2023-11-21T03:31:53;19.20;;;8.80;;
76550;SDS011;68768;53.156;18.164;2023-11-21T03:34:25;17.30;;;8.80;;
76550;SDS011;68768;53.156;18.164;2023-11-21T03:36:53;19.80;;;9.40;;
76550;SDS011;68768;53.156;18.164;2023-11-21T03:39:20;17.70;;;8.00;;
76550;SDS011;68768;53.156;18.164;2023-11-21T03:41:49;20.80;;;9.40;;
76550;SDS011;68768;53.156;18.164;2023-11-21T03:44:17;22.00;;;9.60;;
76550;SDS011;68768;53.156;18.164;2023-11-21T03:46:45;21.00;;;9.70;;
76550;SDS011;68768;53.156;18.164;2023-11-21T03:49:12;19.20;;;9.60;;
76550;SDS011;68768;53.156;18.164;2023-11-21T03:51:40;21.70;;;8.90;;
76550;SDS011;68768;53.156;18.164;2023-11-21T03:54:06;19.20;;;9.80;;
76550;SDS011;68768;53.156;18.164;2023-11-21T03:56:33;23.70;;;9.20;;
76550;SDS011;68768;53.156;18.164;2023-11-21T03:59:00;23.00;;;9.70;;
76550;SDS011;68768;53.156;18.164;2023-11-21T04:01:27;19.00;;;9.00;;
76550;SDS011;68768;53.156;18.164;2023-11-21T04:03:54;19.00;;;8.40;;
76550;SDS011;68768;53.156;18.164;2023-11-21T04:06:21;21.10;;;9.10;;
76550;SDS011;68768;53.156;18.164;2023-11-21T04:08:48;19.20;;;9.10;;
76550;SDS011;68768;53.156;18.164;2023-11-21T04:11:15;18.30;;;8.70;;
76550;SDS011;68768;53.156;18.164;2023-11-21T04:13:42;18.40;;;7.90;;
76550;SDS011;68768;53.156;18.164;2023-11-21T04:16:09;20.90;;;8.30;;
76550;SDS011;68768;53.156;18.164;2023-11-21T04:18:36;20.70;;;8.00;;
76550;SDS011;68768;53.156;18.164;2023-11-21T04:21:07;18.30;;;8.60;;
76550;SDS011;68768;53.156;18.164;2023-11-21T04:23:34;19.50;;;8.50;;
76550;SDS011;68768;53.156;18.164;2023-11-21T04:26:02;16.10;;;7.70;;
76550;SDS011;68768;53.156;18.164;2023-11-21T04:28:29;18.50;;;8.80;;
76550;SDS011;68768;53.156;18.164;2023-11-21T04:30:56;24.00;;;10.00;;
76550;SDS011;68768;53.156;18.164;2023-11-21T04:33:23;23.60;;;8.90;;
76550;SDS011;68768;53.156;18.164;2023-11-21T04:35:50;18.60;;;8.40;;
76550;SDS011;68768;53.156;18.164;2023-11-21T04:38:17;16.00;;;7.80;;
76550;SDS011;68768;53.156;18.164;2023-11-21T04:40:44;19.40;;;9.00;;
76550;SDS011;68768;53.156;18.164;2023-11-21T04:43:11;21.00;;;8.80;;
76550;SDS011;68768;53.156;18.164;2023-11-21T04:45:38;18.40;;;9.00;;
76550;SDS011;68768;53.156;18.164;2023-11-21T04:48:05;17.50;;;7.30;;
76550;SDS011;68768;53.156;18.164;2023-11-21T04:50:33;22.50;;;8.80;;
76550;SDS011;68768;53.156;18.164;2023-11-21T04:53:00;22.00;;;9.20;;
76550;SDS011;68768;53.156;18.164;2023-11-21T04:55:27;17.00;;;8.50;;
76550;SDS011;68768;53.156;18.164;2023-11-21T04:57:54;17.60;;;8.60;;
76550;SDS011;68768;53.156;18.164;2023-11-21T05:00:21;16.30;;;7.60;;
76550;SDS011;68768;53.156;18.164;2023-11-21T05:02:48;19.60;;;8.50;;
76550;SDS011;68768;53.156;18.164;2023-11-21T05:05:15;17.40;;;7.90;;
76550;SDS011;68768;53.156;18.164;2023-11-21T05:07:42;19.00;;;8.40;;
76550;SDS011;68768;53.156;18.164;2023-11-21T05:10:09;17.70;;;7.30;;
76550;SDS011;68768;53.156;18.164;2023-11-21T05:12:41;21.80;;;9.30;;
76550;SDS011;68768;53.156;18.164;2023-11-21T05:15:08;18.40;;;8.40;;
76550;SDS011;68768;53.156;18.164;2023-11-21T05:17:39;16.90;;;7.70;;
76550;SDS011;68768;53.156;18.164;2023-11-21T05:20:10;15.90;;;7.40;;
76550;SDS011;68768;53.156;18.164;2023-11-21T05:22:39;18.00;;;9.00;;
76550;SDS011;68768;53.156;18.164;2023-11-21T05:25:06;16.50;;;7.90;;
76550;SDS011;68768;53.156;18.164;2023-11-21T05:27:35;22.60;;;9.80;;
76550;SDS011;68768;53.156;18.164;2023-11-21T05:30:02;19.60;;;7.20;;
76550;SDS011;68768;53.156;18.164;2023-11-21T05:32:32;20.00;;;8.80;;
76550;SDS011;68768;53.156;18.164;2023-11-21T05:35:00;19.40;;;8.70;;
76550;SDS011;68768;53.156;18.164;2023-11-21T05:37:27;19.00;;;8.50;;
76550;SDS011;68768;53.156;18.164;2023-11-21T05:39:55;16.10;;;8.80;;
76550;SDS011;68768;53.156;18.164;2023-11-21T05:42:23;18.00;;;7.80;;
76550;SDS011;68768;53.156;18.164;2023-11-21T05:44:50;15.40;;;8.20;;
76550;SDS011;68768;53.156;18.164;2023-11-21T05:47:17;19.90;;;7.70;;
76550;SDS011;68768;53.156;18.164;2023-11-21T05:49:44;22.40;;;8.20;;
76550;SDS011;68768;53.156;18.164;2023-11-21T05:52:12;20.40;;;9.00;;
76550;SDS011;68768;53.156;18.164;2023-11-21T05:54:39;17.00;;;7.70;;
76550;SDS011;68768;53.156;18.164;2023-11-21T05:57:06;17.10;;;7.90;;
76550;SDS011;68768;53.156;18.164;2023-11-21T05:59:33;15.80;;;8.30;;
76550;SDS011;68768;53.156;18.164;2023-11-21T06:02:00;17.40;;;7.90;;
76550;SDS011;68768;53.156;18.164;2023-11-21T06:04:28;19.60;;;9.20;;
76550;SDS011;68768;53.156;18.164;2023-11-21T06:06:55;18.00;;;8.20;;
76550;SDS011;68768;53.156;18.164;2023-11-21T06:09:22;15.70;;;7.70;;
76550;SDS011;68768;53.156;18.164;2023-11-21T06:11:49;18.90;;;8.30;;
76550;SDS011;68768;53.156;18.164;2023-11-21T06:14:16;17.20;;;7.20;;
76550;SDS011;68768;53.156;18.164;2023-11-21T06:16:44;19.20;;;8.30;;
76550;SDS011;68768;53.156;18.164;2023-11-21T06:19:12;17.70;;;7.90;;
76550;SDS011;68768;53.156;18.164;2023-11-21T06:21:39;16.30;;;7.70;;
76550;SDS011;68768;53.156;18.164;2023-11-21T06:24:06;19.20;;;8.60;;
76550;SDS011;68768;53.156;18.164;2023-11-21T06:26:34;22.30;;;8.90;;
76550;SDS011;68768;53.156;18.164;2023-11-21T06:29:01;19.20;;;8.30;;
76550;SDS011;68768;53.156;18.164;2023-11-21T06:31:29;16.90;;;8.30;;
76550;SDS011;68768;53.156;18.164;2023-11-21T06:33:56;17.90;;;8.00;;
76550;SDS011;68768;53.156;18.164;2023-11-21T06:36:26;18.70;;;7.90;;
76550;SDS011;68768;53.156;18.164;2023-11-21T06:38:53;19.10;;;7.90;;
76550;SDS011;68768;53.156;18.164;2023-11-21T06:41:20;15.30;;;7.20;;
76550;SDS011;68768;53.156;18.164;2023-11-21T06:43:47;15.30;;;6.70;;
76550;SDS011;68768;53.156;18.164;2023-11-21T06:46:14;15.10;;;7.00;;
76550;SDS011;68768;53.156;18.164;2023-11-21T06:48:44;13.60;;;6.10;;
76550;SDS011;68768;53.156;18.164;2023-11-21T06:51:11;13.10;;;7.30;;
76550;SDS011;68768;53.156;18.164;2023-11-21T06:53:39;14.90;;;6.60;;
76550;SDS011;68768;53.156;18.164;2023-11-21T06:56:16;15.30;;;6.20;;
76550;SDS011;68768;53.156;18.164;2023-11-21T06:58:44;18.40;;;7.10;;
76550;SDS011;68768;53.156;18.164;2023-11-21T07:01:13;12.60;;;6.20;;
76550;SDS011;68768;53.156;18.164;2023-11-21T07:03:40;12.60;;;6.10;;
76550;SDS011;68768;53.156;18.164;2023-11-21T07:06:08;14.80;;;6.70;;
76550;SDS011;68768;53.156;18.164;2023-11-21T07:08:35;14.70;;;5.80;;
76550;SDS011;68768;53.156;18.164;2023-11-21T07:11:03;11.60;;;5.50;;
76550;SDS011;68768;53.156;18.164;2023-11-21T07:13:30;11.00;;;5.50;;
76550;SDS011;68768;53.156;18.164;2023-11-21T07:15:57;12.50;;;5.40;;
76550;SDS011;68768;53.156;18.164;2023-11-21T07:18:25;11.10;;;5.50;;
76550;SDS011;68768;53.156;18.164;2023-11-21T07:20:52;11.00;;;5.60;;
76550;SDS011;68768;53.156;18.164;2023-11-21T07:23:19;13.40;;;5.60;;
76550;SDS011;68768;53.156;18.164;2023-11-21T07:25:49;13.90;;;6.70;;
76550;SDS011;68768;53.156;18.164;2023-11-21T07:28:16;9.50;;;4.80;;
76550;SDS011;68768;53.156;18.164;2023-11-21T07:30:43;12.60;;;5.20;;
76550;SDS011;68768;53.156;18.164;2023-11-21T07:33:10;10.50;;;5.30;;
76550;SDS011;68768;53.156;18.164;2023-11-21T07:35:37;10.00;;;5.20;;
76550;SDS011;68768;53.156;18.164;2023-11-21T07:38:04;12.70;;;5.30;;
76550;SDS011;68768;53.156;18.164;2023-11-21T07:40:31;11.70;;;4.70;;
76550;SDS011;68768;53.156;18.164;2023-11-21T07:42:58;9.50;;;4.90;;
76550;SDS011;68768;53.156;18.164;2023-11-21T07:45:26;8.50;;;4.40;;
76550;SDS011;68768;53.156;18.164;2023-11-21T07:47:55;9.60;;;4.60;;
76550;SDS011;68768;53.156;18.164;2023-11-21T07:50:22;12.70;;;5.60;;
76550;SDS011;68768;53.156;18.164;2023-11-21T07:52:49;8.80;;;5.00;;
76550;SDS011;68768;53.156;18.164;2023-11-21T07:55:16;10.00;;;4.90;;
76550;SDS011;68768;53.156;18.164;2023-11-21T07:57:43;9.70;;;5.20;;
76550;SDS011;68768;53.156;18.164;2023-11-21T08:00:10;9.40;;;5.00;;
76550;SDS011;68768;53.156;18.164;2023-11-21T08:02:41;12.80;;;5.50;;
76550;SDS011;68768;53.156;18.164;2023-11-21T08:05:12;11.40;;;5.00;;
76550;SDS011;68768;53.156;18.164;2023-11-21T08:07:39;10.40;;;5.30;;
76550;SDS011;68768;53.156;18.164;2023-11-21T08:10:07;10.50;;;4.60;;
76550;SDS011;68768;53.156;18.164;2023-11-21T08:12:36;12.30;;;5.60;;
76550;SDS011;68768;53.156;18.164;2023-11-21T08:15:05;10.40;;;5.10;;
76550;SDS011;68768;53.156;18.164;2023-11-21T08:17:32;10.40;;;5.40;;
76550;SDS011;68768;53.156;18.164;2023-11-21T08:19:59;13.70;;;4.90;;
76550;SDS011;68768;53.156;18.164;2023-11-21T08:22:26;10.40;;;5.40;;
76550;SDS011;68768;53.156;18.164;2023-11-21T08:24:53;11.50;;;5.70;;
76550;SDS011;68768;53.156;18.164;2023-11-21T08:27:22;12.30;;;5.20;;
76550;SDS011;68768;53.156;18.164;2023-11-21T08:29:49;10.30;;;5.20;;
76550;SDS011;68768;53.156;18.164;2023-11-21T08:32:17;9.50;;;5.00;;
76550;SDS011;68768;53.156;18.164;2023-11-21T08:34:44;12.50;;;5.20;;
76550;SDS011;68768;53.156;18.164;2023-11-21T08:37:14;11.60;;;5.40;;
76550;SDS011;68768;53.156;18.164;2023-11-21T08:39:42;7.90;;;4.40;;
76550;SDS011;68768;53.156;18.164;2023-11-21T08:42:11;11.20;;;4.50;;
76550;SDS011;68768;53.156;18.164;2023-11-21T08:44:38;11.80;;;5.20;;
76550;SDS011;68768;53.156;18.164;2023-11-21T08:47:05;13.10;;;5.40;;
76550;SDS011;68768;53.156;18.164;2023-11-21T08:49:32;14.30;;;5.60;;
76550;SDS011;68768;53.156;18.164;2023-11-21T08:51:59;11.10;;;4.60;;
76550;SDS011;68768;53.156;18.164;2023-11-21T08:54:26;8.30;;;4.50;;
76550;SDS011;68768;53.156;18.164;2023-11-21T08:56:54;8.90;;;4.30;;
76550;SDS011;68768;53.156;18.164;2023-11-21T08:59:21;11.80;;;4.80;;
76550;SDS011;68768;53.156;18.164;2023-11-21T09:01:48;11.40;;;5.60;;
76550;SDS011;68768;53.156;18.164;2023-11-21T09:04:15;9.00;;;4.80;;
76550;SDS011;68768;53.156;18.164;2023-11-21T09:06:42;11.00;;;5.50;;
76550;SDS011;68768;53.156;18.164;2023-11-21T09:09:10;9.70;;;4.60;;
76550;SDS011;68768;53.156;18.164;2023-11-21T09:11:36;10.40;;;5.00;;
76550;SDS011;68768;53.156;18.164;2023-11-21T09:14:03;8.00;;;4.30;;
76550;SDS011;68768;53.156;18.164;2023-11-21T09:16:30;9.70;;;5.20;;
76550;SDS011;68768;53.156;18.164;2023-11-21T09:18:58;10.50;;;5.50;;
76550;SDS011;68768;53.156;18.164;2023-11-21T09:21:25;10.90;;;5.40;;
76550;SDS011;68768;53.156;18.164;2023-11-21T09:23:52;10.80;;;4.80;;
76550;SDS011;68768;53.156;18.164;2023-11-21T09:26:20;10.40;;;5.40;;
76550;SDS011;68768;53.156;18.164;2023-11-21T09:28:47;9.50;;;4.80;;
76550;SDS011;68768;53.156;18.164;2023-11-21T09:31:14;8.90;;;4.40;;
76550;SDS011;68768;53.156;18.164;2023-11-21T09:33:43;9.60;;;4.50;;
76550;SDS011;68768;53.156;18.164;2023-11-21T09:36:11;9.80;;;4.30;;
76550;SDS011;68768;53.156;18.164;2023-11-21T09:38:41;9.40;;;5.10;;
76550;SDS011;68768;53.156;18.164;2023-11-21T09:41:11;10.70;;;5.10;;
76550;SDS011;68768;53.156;18.164;2023-11-21T09:43:46;8.90;;;4.30;;
76550;SDS011;68768;53.156;18.164;2023-11-21T09:46:15;11.30;;;5.00;;
76550;SDS011;68768;53.156;18.164;2023-11-21T09:48:48;12.40;;;6.00;;
76550;SDS011;68768;53.156;18.164;2023-11-21T09:51:21;11.60;;;5.50;;
76550;SDS011;68768;53.156;18.164;2023-11-21T09:53:53;10.90;;;5.50;;
76550;SDS011;68768;53.156;18.164;2023-11-21T09:56:21;10.60;;;4.90;;
76550;SDS011;68768;53.156;18.164;2023-11-21T09:58:51;11.10;;;5.40;;
76550;SDS011;68768;53.156;18.164;2023-11-21T10:01:20;9.70;;;5.10;;
76550;SDS011;68768;53.156;18.164;2023-11-21T10:03:49;28.40;;;7.70;;
76550;SDS011;68768;53.156;18.164;2023-11-21T10:06:16;22.90;;;6.90;;
76550;SDS011;68768;53.156;18.164;2023-11-21T10:08:45;11.50;;;5.30;;
76550;SDS011;68768;53.156;18.164;2023-11-21T10:11:12;13.00;;;6.40;;
76550;SDS011;68768;53.156;18.164;2023-11-21T10:13:42;11.70;;;5.20;;
76550;SDS011;68768;53.156;18.164;2023-11-21T10:16:13;9.90;;;4.90;;
76550;SDS011;68768;53.156;18.164;2023-11-21T10:18:51;11.40;;;5.00;;
76550;SDS011;68768;53.156;18.164;2023-11-21T10:21:21;10.70;;;5.60;;
76550;SDS011;68768;53.156;18.164;2023-11-21T10:23:48;12.80;;;6.20;;
76550;SDS011;68768;53.156;18.164;2023-11-21T10:26:19;13.90;;;5.80;;
76550;SDS011;68768;53.156;18.164;2023-11-21T10:28:59;12.30;;;4.80;;
76550;SDS011;68768;53.156;18.164;2023-11-21T10:31:27;10.20;;;5.60;;
76550;SDS011;68768;53.156;18.164;2023-11-21T10:33:54;19.80;;;6.70;;
76550;SDS011;68768;53.156;18.164;2023-11-21T10:36:36;22.20;;;8.50;;
76550;SDS011;68768;53.156;18.164;2023-11-21T10:39:03;13.70;;;6.80;;
76550;SDS011;68768;53.156;18.164;2023-11-21T10:41:30;9.30;;;5.20;;
76550;SDS011;68768;53.156;18.164;2023-11-21T10:43:57;9.20;;;4.70;;
76550;SDS011;68768;53.156;18.164;2023-11-21T10:46:24;8.80;;;5.00;;
76550;SDS011;68768;53.156;18.164;2023-11-21T10:48:53;11.80;;;5.30;;
76550;SDS011;68768;53.156;18.164;2023-11-21T10:51:23;13.70;;;5.40;;
76550;SDS011;68768;53.156;18.164;2023-11-21T10:53:52;14.20;;;6.10;;
76550;SDS011;68768;53.156;18.164;2023-11-21T10:56:19;10.50;;;4.90;;
76550;SDS011;68768;53.156;18.164;2023-11-21T10:58:50;12.10;;;5.40;;
76550;SDS011;68768;53.156;18.164;2023-11-21T11:01:20;12.40;;;5.10;;
76550;SDS011;68768;53.156;18.164;2023-11-21T11:03:52;10.90;;;5.60;;
76550;SDS011;68768;53.156;18.164;2023-11-21T11:06:21;11.30;;;6.10;;
76550;SDS011;68768;53.156;18.164;2023-11-21T11:08:49;9.30;;;5.20;;
76550;SDS011;68768;53.156;18.164;2023-11-21T11:11:17;10.50;;;5.10;;
76550;SDS011;68768;53.156;18.164;2023-11-21T11:13:45;9.30;;;4.90;;
76550;SDS011;68768;53.156;18.164;2023-11-21T11:16:14;8.20;;;4.90;;
76550;SDS011;68768;53.156;18.164;2023-11-21T11:18:43;8.40;;;4.60;;
76550;SDS011;68768;53.156;18.164;2023-11-21T11:21:17;8.90;;;4.20;;
76550;SDS011;68768;53.156;18.164;2023-11-21T11:23:59;10.40;;;4.80;;
76550;SDS011;68768;53.156;18.164;2023-11-21T11:26:46;9.90;;;4.80;;
76550;SDS011;68768;53.156;18.164;2023-11-21T11:34:36;8.10;;;4.10;;
76550;SDS011;68768;53.156;18.164;2023-11-21T11:37:11;7.50;;;3.70;;
76550;SDS011;68768;53.156;18.164;2023-11-21T11:39:42;7.90;;;3.70;;
76550;SDS011;68768;53.156;18.164;2023-11-21T11:42:13;8.00;;;4.50;;
76550;SDS011;68768;53.156;18.164;2023-11-21T11:47:15;7.10;;;3.70;;
76550;SDS011;68768;53.156;18.164;2023-11-21T11:52:49;7.80;;;3.90;;
76550;SDS011;68768;53.156;18.164;2023-11-21T11:55:19;10.70;;;4.40;;
76550;SDS011;68768;53.156;18.164;2023-11-21T11:57:56;9.20;;;4.40;;
76550;SDS011;68768;53.156;18.164;2023-11-21T12:02:58;10.80;;;4.60;;
76550;SDS011;68768;53.156;18.164;2023-11-21T12:05:32;9.90;;;4.80;;
76550;SDS011;68768;53.156;18.164;2023-11-21T12:08:06;7.20;;;3.90;;
76550;SDS011;68768;53.156;18.164;2023-11-21T12:10:34;9.30;;;5.00;;
76550;SDS011;68768;53.156;18.164;2023-11-21T12:13:05;10.10;;;4.90;;
76550;SDS011;68768;53.156;18.164;2023-11-21T12:15:34;10.60;;;4.70;;
76550;SDS011;68768;53.156;18.164;2023-11-21T12:18:02;8.10;;;4.20;;
76550;SDS011;68768;53.156;18.164;2023-11-21T12:20:30;10.10;;;4.60;;
76550;SDS011;68768;53.156;18.164;2023-11-21T12:22:58;8.90;;;4.70;;
76550;SDS011;68768;53.156;18.164;2023-11-21T12:25:27;9.70;;;5.00;;
76550;SDS011;68768;53.156;18.164;2023-11-21T12:27:56;10.50;;;5.10;;
76550;SDS011;68768;53.156;18.164;2023-11-21T12:30:25;13.20;;;5.40;;
76550;SDS011;68768;53.156;18.164;2023-11-21T12:32:55;7.40;;;4.10;;
76550;SDS011;68768;53.156;18.164;2023-11-21T12:35:24;11.70;;;4.70;;
76550;SDS011;68768;53.156;18.164;2023-11-21T12:37:54;7.70;;;4.40;;
76550;SDS011;68768;53.156;18.164;2023-11-21T12:40:21;8.90;;;4.40;;
76550;SDS011;68768;53.156;18.164;2023-11-21T12:42:53;10.10;;;4.70;;
76550;SDS011;68768;53.156;18.164;2023-11-21T12:45:27;10.10;;;5.20;;
76550;SDS011;68768;53.156;18.164;2023-11-21T12:48:00;9.40;;;4.80;;
76550;SDS011;68768;53.156;18.164;2023-11-21T12:50:30;8.00;;;4.60;;
76550;SDS011;68768;53.156;18.164;2023-11-21T12:53:00;8.90;;;4.00;;
76550;SDS011;68768;53.156;18.164;2023-11-21T12:55:32;10.90;;;4.90;;
76550;SDS011;68768;53.156;18.164;2023-11-21T12:58:07;8.00;;;4.40;;
76550;SDS011;68768;53.156;18.164;2023-11-21T13:00:36;8.70;;;4.50;;
76550;SDS011;68768;53.156;18.164;2023-11-21T13:03:09;8.20;;;4.40;;
76550;SDS011;68768;53.156;18.164;2023-11-21T13:05:39;8.80;;;4.70;;
76550;SDS011;68768;53.156;18.164;2023-11-21T13:08:11;8.80;;;4.50;;
76550;SDS011;68768;53.156;18.164;2023-11-21T13:10:40;7.20;;;4.10;;
76550;SDS011;68768;53.156;18.164;2023-11-21T13:13:10;8.20;;;4.20;;
76550;SDS011;68768;53.156;18.164;2023-11-21T13:15:50;10.00;;;4.00;;
76550;SDS011;68768;53.156;18.164;2023-11-21T13:18:23;8.00;;;4.00;;
76550;SDS011;68768;53.156;18.164;2023-11-21T13:20:56;6.70;;;3.50;;
76550;SDS011;68768;53.156;18.164;2023-11-21T13:23:25;8.70;;;4.30;;
76550;SDS011;68768;53.156;18.164;2023-11-21T13:25:53;18.80;;;4.40;;
76550;SDS011;68768;53.156;18.164;2023-11-21T13:28:20;7.40;;;3.60;;
76550;SDS011;68768;53.156;18.164;2023-11-21T13:30:48;8.10;;;4.10;;
76550;SDS011;68768;53.156;18.164;2023-11-21T13:33:18;6.80;;;3.60;;
76550;SDS011;68768;53.156;18.164;2023-11-21T13:35:48;9.70;;;4.00;;
76550;SDS011;68768;53.156;18.164;2023-11-21T13:38:18;6.90;;;3.70;;
76550;SDS011;68768;53.156;18.164;2023-11-21T13:40:53;7.50;;;3.50;;
76550;SDS011;68768;53.156;18.164;2023-11-21T13:43:24;9.90;;;4.00;;
76550;SDS011;68768;53.156;18.164;2023-11-21T13:45:52;7.10;;;3.20;;
76550;SDS011;68768;53.156;18.164;2023-11-21T13:48:37;6.00;;;3.40;;
76550;SDS011;68768;53.156;18.164;2023-11-21T13:51:17;7.60;;;4.00;;
76550;SDS011;68768;53.156;18.164;2023-11-21T13:53:44;9.30;;;3.90;;
76550;SDS011;68768;53.156;18.164;2023-11-21T13:56:14;10.70;;;4.20;;
76550;SDS011;68768;53.156;18.164;2023-11-21T13:58:45;7.50;;;4.20;;
76550;SDS011;68768;53.156;18.164;2023-11-21T14:01:18;6.90;;;3.80;;
76550;SDS011;68768;53.156;18.164;2023-11-21T14:04:01;7.70;;;3.70;;
76550;SDS011;68768;53.156;18.164;2023-11-21T14:06:39;10.10;;;4.20;;
76550;SDS011;68768;53.156;18.164;2023-11-21T14:09:15;9.50;;;4.00;;
76550;SDS011;68768;53.156;18.164;2023-11-21T14:11:57;10.40;;;4.10;;
76550;SDS011;68768;53.156;18.164;2023-11-21T14:14:25;7.80;;;3.50;;
76550;SDS011;68768;53.156;18.164;2023-11-21T14:16:55;8.90;;;4.60;;
76550;SDS011;68768;53.156;18.164;2023-11-21T14:19:25;8.30;;;3.90;;
76550;SDS011;68768;53.156;18.164;2023-11-21T14:21:59;9.80;;;3.80;;
76550;SDS011;68768;53.156;18.164;2023-11-21T14:24:26;9.60;;;4.10;;
76550;SDS011;68768;53.156;18.164;2023-11-21T14:26:55;7.40;;;3.60;;
76550;SDS011;68768;53.156;18.164;2023-11-21T14:29:22;7.30;;;3.60;;
76550;SDS011;68768;53.156;18.164;2023-11-21T14:31:50;11.00;;;4.40;;
76550;SDS011;68768;53.156;18.164;2023-11-21T14:34:17;13.30;;;4.60;;
76550;SDS011;68768;53.156;18.164;2023-11-21T14:36:44;9.50;;;4.80;;
76550;SDS011;68768;53.156;18.164;2023-11-21T14:39:11;8.80;;;4.40;;
76550;SDS011;68768;53.156;18.164;2023-11-21T14:41:59;9.30;;;3.60;;
76550;SDS011;68768;53.156;18.164;2023-11-21T14:44:28;7.50;;;3.30;;
76550;SDS011;68768;53.156;18.164;2023-11-21T14:46:59;8.10;;;3.90;;
76550;SDS011;68768;53.156;18.164;2023-11-21T14:49:27;7.10;;;4.10;;
76550;SDS011;68768;53.156;18.164;2023-11-21T14:52:03;8.00;;;4.00;;